Time;durP1;ratioP1;P1;durP2;ratioP2;P2;SDS_P1;SDS_P2;PMS_P1;PMS_P2;Temp;Humidity;BMP_temperature;BMP_pressure;BME280_temperature;BME280_humidity;BME280_pressure;Samples;Min_cycle;Max_cycle;Signal;HPM_P1;HPM_P2
2022/03/17 00:00:34;;;;;;;17.03;14.67;;;12.60;99.90;;;;;;4982684;28;20462;-83
2022/03/17 00:03:00;;;;;;;22.10;15.13;;;12.70;99.90;;;;;;4983549;28;20946;-81
2022/03/17 00:05:27;;;;;;;16.83;14.53;;;12.70;99.90;;;;;;4982811;28;20504;-83
2022/03/17 00:07:54;;;;;;;18.07;15.00;;;12.80;99.90;;;;;;4983515;28;20514;-83
2022/03/17 00:10:23;;;;;;;21.23;16.57;;;12.70;99.90;;;;;;4984227;28;20488;-82
2022/03/17 00:12:49;;;;;;;17.47;15.40;;;12.70;99.90;;;;;;4984294;28;20475;-83
2022/03/17 00:15:17;;;;;;;16.63;14.83;;;12.70;99.90;;;;;;4983508;28;20846;-83
2022/03/17 00:17:45;;;;;;;21.50;15.23;;;12.70;99.90;;;;;;4982120;28;20468;-83
2022/03/17 00:20:13;;;;;;;18.30;15.33;;;12.70;99.90;;;;;;4981214;28;20474;-83
2022/03/17 00:22:41;;;;;;;19.00;16.20;;;12.70;99.90;;;;;;4981839;28;20552;-81
2022/03/17 00:25:09;;;;;;;18.60;15.60;;;12.70;99.90;;;;;;4980369;28;20498;-83
2022/03/17 00:27:38;;;;;;;18.00;15.30;;;12.70;99.90;;;;;;4980926;28;20474;-80
2022/03/17 00:30:05;;;;;;;17.53;14.33;;;12.70;99.90;;;;;;4961269;29;20463;-84
2022/03/17 00:32:32;;;;;;;18.37;15.73;;;12.70;99.90;;;;;;4980218;28;20473;-83
2022/03/17 00:37:43;;;;;;;18.63;15.00;;;12.80;99.90;;;;;;4974628;28;20483;-83
2022/03/17 00:40:11;;;;;;;17.07;15.27;;;12.80;99.90;;;;;;4980651;28;20494;-83
2022/03/17 00:42:39;;;;;;;20.97;17.23;;;12.80;99.90;;;;;;4981167;28;20462;-83
2022/03/17 00:45:09;;;;;;;18.93;15.33;;;12.90;99.90;;;;;;4980582;28;20495;-83
2022/03/17 00:47:36;;;;;;;18.93;15.50;;;12.80;99.90;;;;;;4981088;28;20969;-81
2022/03/17 00:50:03;;;;;;;18.40;15.20;;;12.80;99.90;;;;;;4981169;28;20544;-82
2022/03/17 00:52:30;;;;;;;18.70;15.83;;;12.80;99.90;;;;;;4980122;28;20460;-83
2022/03/17 00:54:57;;;;;;;21.53;16.37;;;12.70;99.90;;;;;;4980256;28;20478;-81
2022/03/17 00:57:24;;;;;;;19.27;16.30;;;12.70;99.90;;;;;;4978269;28;21011;-81
2022/03/17 00:59:52;;;;;;;18.57;15.30;;;12.70;99.90;;;;;;4980257;28;20461;-82
2022/03/17 01:02:19;;;;;;;19.67;15.10;;;12.70;99.90;;;;;;4979850;28;20460;-82
2022/03/17 01:04:46;;;;;;;20.27;16.47;;;12.70;99.90;;;;;;4979099;28;20447;-83
2022/03/17 01:07:13;;;;;;;19.33;15.30;;;12.70;99.90;;;;;;4979700;28;20463;-82
2022/03/17 01:09:39;;;;;;;21.30;15.40;;;12.60;99.90;;;;;;4980765;28;20464;-81
2022/03/17 01:12:07;;;;;;;19.10;15.23;;;12.70;99.90;;;;;;4978311;28;20553;-82
2022/03/17 01:14:34;;;;;;;22.97;16.93;;;12.60;99.90;;;;;;4979064;28;20544;-80
2022/03/17 01:17:02;;;;;;;18.40;15.90;;;12.60;99.90;;;;;;4980977;28;20465;-82
2022/03/17 01:19:28;;;;;;;19.73;16.40;;;12.60;99.90;;;;;;4980258;28;20468;-82
2022/03/17 01:21:56;;;;;;;22.83;16.50;;;12.50;99.90;;;;;;4980253;28;20486;-82
2022/03/17 01:24:22;;;;;;;23.03;16.30;;;12.50;99.90;;;;;;4976281;28;20460;-83
2022/03/17 01:26:49;;;;;;;20.23;17.37;;;12.50;99.90;;;;;;4980291;28;22790;-81
2022/03/17 01:29:16;;;;;;;19.00;16.10;;;12.60;99.90;;;;;;4979927;28;20465;-82
2022/03/17 01:31:43;;;;;;;21.00;16.30;;;12.50;99.90;;;;;;4980034;28;20455;-83
2022/03/17 01:34:11;;;;;;;19.30;16.00;;;12.50;99.90;;;;;;4979186;28;20470;-82
2022/03/17 01:36:38;;;;;;;21.30;17.20;;;12.50;99.90;;;;;;4978529;28;20464;-84
2022/03/17 01:39:05;;;;;;;20.00;15.60;;;12.50;99.90;;;;;;4980219;28;20460;-81
2022/03/17 01:41:32;;;;;;;19.33;16.87;;;12.50;99.90;;;;;;4979801;28;20455;-83
2022/03/17 01:43:58;;;;;;;20.00;16.67;;;12.50;99.90;;;;;;4978969;28;20451;-80
2022/03/17 01:46:25;;;;;;;20.70;17.93;;;12.50;99.90;;;;;;4979825;28;21062;-82
2022/03/17 01:48:52;;;;;;;20.87;17.10;;;12.50;99.90;;;;;;4979858;28;20461;-83
2022/03/17 01:51:20;;;;;;;17.90;15.60;;;12.40;99.90;;;;;;4980213;28;20613;-82
2022/03/17 01:53:47;;;;;;;20.87;16.47;;;12.50;99.90;;;;;;4979399;28;20536;-82
2022/03/17 01:56:16;;;;;;;18.53;16.00;;;12.50;99.90;;;;;;4980297;28;20486;-83
2022/03/17 01:58:44;;;;;;;20.40;17.33;;;12.50;99.90;;;;;;4981150;28;20980;-81
2022/03/17 02:01:11;;;;;;;18.97;16.20;;;12.50;99.90;;;;;;4981280;28;20914;-82
2022/03/17 02:03:43;;;;;;;18.53;15.77;;;12.50;99.90;;;;;;4980632;28;20468;-81
2022/03/17 02:06:10;;;;;;;20.40;17.70;;;12.50;99.90;;;;;;4980824;28;20678;-81
2022/03/17 02:08:39;;;;;;;21.23;16.47;;;12.50;99.90;;;;;;4981697;28;20464;-81
2022/03/17 02:13:50;;;;;;;20.67;17.30;;;12.50;99.90;;;;;;4990641;28;20479;-82
2022/03/17 02:16:17;;;;;;;20.33;17.30;;;12.50;99.90;;;;;;4990714;28;20460;-82
2022/03/17 02:18:46;;;;;;;22.00;17.40;;;12.50;99.90;;;;;;4991079;28;21010;-80
2022/03/17 02:21:12;;;;;;;21.00;16.77;;;12.50;99.90;;;;;;4990093;28;20574;-80
2022/03/17 02:26:27;;;;;;;20.27;17.07;;;12.50;99.90;;;;;;4990921;28;20514;-83
2022/03/17 02:28:54;;;;;;;19.60;17.50;;;12.40;99.90;;;;;;4989970;28;20474;-83
2022/03/17 02:31:20;;;;;;;18.70;16.13;;;12.30;99.90;;;;;;4977396;28;20487;-83
2022/03/17 02:33:47;;;;;;;21.80;16.77;;;12.40;99.90;;;;;;4978275;28;20460;-83
2022/03/17 02:36:14;;;;;;;20.37;17.60;;;12.40;99.90;;;;;;4978328;28;20496;-82
2022/03/17 02:38:43;;;;;;;22.23;18.53;;;12.40;99.90;;;;;;4977643;28;20465;-83
2022/03/17 02:41:21;;;;;;;20.83;17.20;;;12.40;99.90;;;;;;4978374;28;20459;-82
2022/03/17 02:43:50;;;;;;;20.30;16.73;;;12.40;99.90;;;;;;4977747;28;20460;-82
2022/03/17 02:46:16;;;;;;;22.57;17.97;;;12.40;99.90;;;;;;4977674;28;20483;-80
2022/03/17 02:48:43;;;;;;;23.43;18.63;;;12.30;99.90;;;;;;4977958;28;20474;-82
2022/03/17 02:51:10;;;;;;;20.83;16.47;;;12.30;99.90;;;;;;4977816;28;20465;-81
2022/03/17 02:53:37;;;;;;;19.83;17.30;;;12.30;99.90;;;;;;4976554;28;20478;-82
2022/03/17 02:56:06;;;;;;;21.27;17.13;;;12.30;99.90;;;;;;4977962;28;20497;-84
2022/03/17 02:58:33;;;;;;;21.10;18.43;;;12.30;99.90;;;;;;4978439;28;20836;-84
2022/03/17 03:00:59;;;;;;;21.60;17.00;;;12.30;99.90;;;;;;4976842;28;20973;-79
2022/03/17 03:03:27;;;;;;;21.90;17.10;;;12.30;99.90;;;;;;4976788;28;20460;-83
2022/03/17 03:05:53;;;;;;;19.47;16.90;;;12.40;99.90;;;;;;4977802;28;20510;-80
2022/03/17 03:08:21;;;;;;;21.43;16.87;;;12.40;99.90;;;;;;4977261;28;21152;-81
2022/03/17 03:10:48;;;;;;;20.07;17.30;;;12.30;99.90;;;;;;4976908;28;20809;-80
2022/03/17 03:13:17;;;;;;;24.23;19.70;;;12.30;99.90;;;;;;4976361;28;21078;-82
2022/03/17 03:15:44;;;;;;;21.73;16.43;;;12.30;99.90;;;;;;4976968;28;20471;-82
2022/03/17 03:18:11;;;;;;;19.87;16.53;;;12.30;99.90;;;;;;4977514;28;20546;-82
2022/03/17 03:20:38;;;;;;;20.70;16.27;;;12.30;99.90;;;;;;4977518;28;21011;-83
2022/03/17 03:23:05;;;;;;;27.53;19.37;;;12.30;99.90;;;;;;4976066;28;20460;-82
2022/03/17 03:25:32;;;;;;;22.03;17.20;;;12.30;99.90;;;;;;4977280;28;20488;-81
2022/03/17 03:28:05;;;;;;;20.33;18.10;;;12.30;99.90;;;;;;4976986;28;20546;-79
2022/03/17 03:30:33;;;;;;;21.83;18.07;;;12.30;99.90;;;;;;4976456;28;20487;-83
2022/03/17 03:33:01;;;;;;;20.33;16.67;;;12.30;99.90;;;;;;4976459;28;20480;-80
2022/03/17 03:38:11;;;;;;;22.40;18.40;;;12.30;99.90;;;;;;4980836;28;20812;-81
2022/03/17 03:40:38;;;;;;;21.70;18.07;;;12.30;99.90;;;;;;4980889;28;20941;-81
2022/03/17 03:43:05;;;;;;;21.37;17.23;;;12.30;99.90;;;;;;4979497;28;20847;-81
2022/03/17 03:45:33;;;;;;;21.10;17.47;;;12.30;99.90;;;;;;4980941;28;20486;-83
2022/03/17 03:48:00;;;;;;;21.93;18.03;;;12.20;99.90;;;;;;4980823;28;20995;-84
2022/03/17 03:50:28;;;;;;;21.43;18.43;;;12.20;99.90;;;;;;4979399;28;20463;-80
2022/03/17 03:52:55;;;;;;;23.03;19.07;;;12.20;99.90;;;;;;4980742;28;20973;-79
2022/03/17 03:55:22;;;;;;;20.93;17.60;;;12.20;99.90;;;;;;4980362;28;21033;-83
2022/03/17 03:57:49;;;;;;;20.03;17.83;;;12.20;99.90;;;;;;4983443;28;20460;-81
2022/03/17 04:00:24;;;;;;;20.30;17.33;;;12.20;99.90;;;;;;4991184;28;20507;-80
2022/03/17 04:02:52;;;;;;;20.53;17.07;;;12.20;99.90;;;;;;4991437;28;20459;-82
2022/03/17 04:05:19;;;;;;;20.67;17.83;;;12.10;99.90;;;;;;4992477;28;20466;-83
2022/03/17 04:07:46;;;;;;;26.20;19.13;;;12.10;99.90;;;;;;4993493;28;20552;-81
2022/03/17 04:10:13;;;;;;;23.20;17.90;;;12.20;99.90;;;;;;4993006;28;20510;-83
2022/03/17 04:12:41;;;;;;;22.97;18.37;;;12.20;99.90;;;;;;4992353;28;20795;-80
2022/03/17 04:15:09;;;;;;;20.53;18.23;;;12.20;99.90;;;;;;4987954;28;20491;-79
2022/03/17 04:17:36;;;;;;;22.33;17.60;;;12.30;99.90;;;;;;4991186;28;20457;-80
2022/03/17 04:20:06;;;;;;;22.00;18.33;;;12.30;99.90;;;;;;4991668;28;20452;-80
2022/03/17 04:22:33;;;;;;;24.33;19.20;;;12.30;99.90;;;;;;4991245;28;20452;-81
2022/03/17 04:24:59;;;;;;;23.47;18.80;;;12.30;99.90;;;;;;4989959;28;20491;-82
2022/03/17 04:27:26;;;;;;;22.17;18.00;;;12.30;99.90;;;;;;4991467;28;20489;-83
2022/03/17 04:29:54;;;;;;;24.90;19.10;;;12.20;99.90;;;;;;4990767;28;20453;-81
2022/03/17 04:32:21;;;;;;;21.17;18.60;;;12.20;99.90;;;;;;4989736;28;20526;-83
2022/03/17 04:34:48;;;;;;;27.27;20.87;;;12.10;99.90;;;;;;4981198;28;20470;-80
2022/03/17 04:37:16;;;;;;;22.70;18.67;;;12.10;99.90;;;;;;4980246;28;20464;-84
2022/03/17 04:39:42;;;;;;;23.10;19.03;;;12.20;99.90;;;;;;4981115;28;20455;-83
2022/03/17 04:42:09;;;;;;;22.67;17.97;;;12.20;99.90;;;;;;4981290;28;20878;-83
2022/03/17 04:44:36;;;;;;;21.87;18.87;;;12.30;99.90;;;;;;4979626;28;20547;-83
2022/03/17 04:47:03;;;;;;;22.83;17.63;;;12.30;99.90;;;;;;4979881;28;20561;-80
2022/03/17 04:49:30;;;;;;;22.03;18.00;;;12.20;99.90;;;;;;4979830;28;20459;-82
2022/03/17 04:51:57;;;;;;;21.13;18.10;;;12.20;99.90;;;;;;4981102;28;20461;-82
2022/03/17 04:54:24;;;;;;;22.67;17.73;;;12.20;99.90;;;;;;4978885;28;20458;-81
2022/03/17 04:56:51;;;;;;;20.40;17.57;;;12.20;99.90;;;;;;4980274;28;20536;-83
2022/03/17 04:59:20;;;;;;;23.10;18.13;;;12.20;99.90;;;;;;4977524;28;20464;-81
2022/03/17 05:01:47;;;;;;;25.20;20.37;;;12.20;99.90;;;;;;4979667;28;20498;-80
2022/03/17 05:04:14;;;;;;;21.73;17.77;;;12.20;99.90;;;;;;4979090;28;20466;-81
2022/03/17 05:06:41;;;;;;;23.20;19.27;;;12.20;99.90;;;;;;4980478;28;20500;-82
2022/03/17 05:09:08;;;;;;;25.37;20.00;;;12.20;99.90;;;;;;4979460;28;20543;-82
2022/03/17 05:11:37;;;;;;;27.43;20.50;;;12.20;99.90;;;;;;4979876;28;20489;-81
2022/03/17 05:14:03;;;;;;;22.40;19.90;;;12.10;99.90;;;;;;4977981;28;20464;-82
2022/03/17 05:16:30;;;;;;;23.23;19.13;;;12.10;99.90;;;;;;4979252;28;20482;-80
2022/03/17 05:18:57;;;;;;;23.30;19.50;;;12.10;99.90;;;;;;4978919;28;21043;-81
2022/03/17 05:21:25;;;;;;;27.67;22.53;;;12.00;99.90;;;;;;4978273;28;20982;-81
2022/03/17 05:23:51;;;;;;;28.90;22.07;;;11.80;99.90;;;;;;4978939;28;20498;-79
2022/03/17 05:26:20;;;;;;;31.07;24.50;;;11.50;99.90;;;;;;4977854;28;20872;-82
2022/03/17 05:28:48;;;;;;;25.70;21.40;;;11.50;99.90;;;;;;4979099;28;20532;-81
2022/03/17 05:31:14;;;;;;;30.47;23.27;;;11.30;99.90;;;;;;4978398;28;20456;-81
2022/03/17 05:33:41;;;;;;;28.33;22.63;;;11.30;99.90;;;;;;4975759;28;20968;-79
2022/03/17 05:36:08;;;;;;;28.87;22.17;;;11.20;99.90;;;;;;4978889;28;20469;-79
2022/03/17 05:38:35;;;;;;;30.97;25.47;;;11.10;99.90;;;;;;4979271;28;20486;-79
2022/03/17 05:41:02;;;;;;;27.97;22.60;;;11.00;99.90;;;;;;4977999;28;20456;-79
2022/03/17 05:43:28;;;;;;;34.40;25.90;;;10.80;99.90;;;;;;4993297;28;20471;-82
2022/03/17 05:45:56;;;;;;;34.70;27.00;;;10.80;99.90;;;;;;4978091;28;20877;-79
2022/03/17 05:48:23;;;;;;;34.37;25.97;;;10.80;99.90;;;;;;4978966;28;20464;-79
2022/03/17 05:50:50;;;;;;;32.07;26.57;;;10.70;99.90;;;;;;4978634;28;20465;-80
2022/03/17 05:53:18;;;;;;;36.53;27.10;;;10.60;99.90;;;;;;4976787;28;20505;-79
2022/03/17 05:55:45;;;;;;;32.87;27.93;;;10.50;99.90;;;;;;4977807;28;20475;-82
2022/03/17 05:58:12;;;;;;;37.90;28.00;;;10.50;99.90;;;;;;4977830;28;21006;-78
2022/03/17 06:00:38;;;;;;;42.30;30.90;;;10.50;99.90;;;;;;4978250;28;20466;-80
2022/03/17 06:03:07;;;;;;;40.33;30.73;;;10.40;99.90;;;;;;4978122;28;20461;-82
2022/03/17 06:05:34;;;;;;;40.37;30.33;;;10.40;99.90;;;;;;4977760;28;20841;-82
2022/03/17 06:08:01;;;;;;;45.50;31.33;;;10.30;99.90;;;;;;4959042;28;20484;-80
2022/03/17 06:10:32;;;;;;;41.10;30.00;;;10.30;99.90;;;;;;4957770;29;20459;-79
2022/03/17 06:13:00;;;;;;;44.27;33.00;;;10.30;99.90;;;;;;4976954;28;20484;-81
2022/03/17 06:15:28;;;;;;;43.60;33.67;;;10.30;99.90;;;;;;4977406;28;20517;-81
2022/03/17 06:17:57;;;;;;;53.13;33.50;;;10.30;99.90;;;;;;4977088;28;20804;-80
2022/03/17 06:20:27;;;;;;;44.67;32.47;;;10.30;99.90;;;;;;4971874;28;20464;-79
2022/03/17 06:22:56;;;;;;;44.00;32.57;;;10.30;99.90;;;;;;4969140;28;20858;-80
2022/03/17 06:25:25;;;;;;;45.27;34.07;;;10.30;99.90;;;;;;4976871;28;20505;-79
2022/03/17 06:27:52;;;;;;;50.90;35.23;;;10.30;99.90;;;;;;4977953;28;20466;-79
2022/03/17 06:30:21;;;;;;;48.80;35.17;;;10.30;99.90;;;;;;4976363;28;20466;-82
2022/03/17 06:32:49;;;;;;;48.90;33.73;;;10.30;99.90;;;;;;4976576;28;20457;-80
2022/03/17 06:35:17;;;;;;;50.50;34.80;;;10.20;99.90;;;;;;4977195;28;20567;-81
2022/03/17 06:37:47;;;;;;;47.27;35.93;;;10.20;99.90;;;;;;4978033;28;20486;-81
2022/03/17 06:40:14;;;;;;;57.73;41.20;;;10.20;99.90;;;;;;4977799;28;20536;-81
2022/03/17 06:42:41;;;;;;;133.80;63.60;;;10.20;99.90;;;;;;4979284;28;20999;-81
2022/03/17 06:45:09;;;;;;;53.33;36.37;;;10.20;99.90;;;;;;4981663;28;20914;-79
2022/03/17 06:47:36;;;;;;;54.10;36.87;;;10.20;99.90;;;;;;4983775;28;20579;-79
2022/03/17 06:50:04;;;;;;;48.73;34.07;;;10.20;99.90;;;;;;4985041;28;20451;-80
2022/03/17 06:52:31;;;;;;;52.70;37.40;;;10.30;99.90;;;;;;4990591;28;20458;-80
2022/03/17 06:54:59;;;;;;;46.43;32.20;;;10.20;99.90;;;;;;4980501;28;20485;-81
2022/03/17 06:57:26;;;;;;;59.93;37.03;;;10.20;99.90;;;;;;4977894;28;20511;-81
2022/03/17 06:59:53;;;;;;;52.60;35.10;;;10.20;99.90;;;;;;4976934;28;20462;-81
2022/03/17 07:02:20;;;;;;;36.73;25.50;;;10.30;99.90;;;;;;4976837;28;20679;-82
2022/03/17 07:04:47;;;;;;;27.50;20.50;;;10.10;99.90;;;;;;4971132;28;20462;-81
2022/03/17 07:07:14;;;;;;;29.30;21.60;;;10.10;99.90;;;;;;4968204;28;20477;-81
2022/03/17 07:09:42;;;;;;;26.47;19.07;;;10.00;99.90;;;;;;4978503;28;20814;-82
2022/03/17 07:12:11;;;;;;;25.83;17.97;;;9.80;99.90;;;;;;4982035;28;20511;-81
2022/03/17 07:14:38;;;;;;;24.87;19.07;;;9.70;99.90;;;;;;4981475;28;20516;-81
2022/03/17 07:17:07;;;;;;;24.83;17.27;;;9.80;99.90;;;;;;4980420;28;20486;-82
2022/03/17 07:19:35;;;;;;;22.87;16.20;;;9.70;99.90;;;;;;4981345;28;20538;-81
2022/03/17 07:22:02;;;;;;;32.43;21.27;;;9.60;99.90;;;;;;4976232;28;20825;-82
2022/03/17 07:24:29;;;;;;;22.37;16.67;;;9.60;99.90;;;;;;4980631;28;20469;-81
2022/03/17 07:26:58;;;;;;;29.07;18.70;;;9.70;99.90;;;;;;4980750;28;20489;-82
2022/03/17 07:29:28;;;;;;;25.57;17.43;;;9.70;99.90;;;;;;4981010;28;20972;-81
2022/03/17 07:31:58;;;;;;;24.77;17.30;;;9.70;99.90;;;;;;4975894;28;20467;-81
2022/03/17 07:34:25;;;;;;;27.13;17.43;;;9.60;99.90;;;;;;4980913;28;20907;-81
2022/03/17 07:36:52;;;;;;;25.23;17.70;;;9.60;99.90;;;;;;4979816;28;20838;-82
2022/03/17 07:39:21;;;;;;;26.33;17.20;;;9.70;99.90;;;;;;4967852;28;20851;-83
2022/03/17 07:41:48;;;;;;;19.87;15.63;;;9.70;99.90;;;;;;4977344;28;20486;-81
2022/03/17 07:44:14;;;;;;;20.70;16.90;;;9.70;99.90;;;;;;4977899;28;20460;-82
2022/03/17 07:46:43;;;;;;;25.07;18.33;;;9.70;99.90;;;;;;4978372;28;20477;-81
2022/03/17 07:49:11;;;;;;;24.83;15.17;;;9.60;99.90;;;;;;4974290;28;20450;-82
2022/03/17 07:51:42;;;;;;;22.90;15.13;;;9.50;99.90;;;;;;4975744;28;20526;-82
2022/03/17 07:54:09;;;;;;;18.67;15.33;;;9.40;99.90;;;;;;4980831;28;20551;-82
2022/03/17 07:56:37;;;;;;;18.67;14.00;;;9.40;99.90;;;;;;4980980;28;20568;-80
2022/03/17 07:59:04;;;;;;;18.90;13.57;;;9.40;99.90;;;;;;4982191;28;20879;-82
2022/03/17 08:01:32;;;;;;;18.50;12.30;;;9.40;99.90;;;;;;4985373;28;20844;-83
2022/03/17 08:04:00;;;;;;;23.77;10.90;;;9.30;99.90;;;;;;4987025;28;20811;-83
2022/03/17 08:06:27;;;;;;;21.27;10.87;;;9.20;99.90;;;;;;4990384;28;20469;-83
2022/03/17 08:08:55;;;;;;;17.60;10.60;;;9.30;99.90;;;;;;4985866;28;21033;-83
2022/03/17 08:11:23;;;;;;;18.90;10.77;;;9.40;99.90;;;;;;4987963;28;20460;-83
2022/03/17 08:13:50;;;;;;;16.10;8.73;;;9.40;99.90;;;;;;4989387;28;20530;-83
2022/03/17 08:16:17;;;;;;;12.57;7.97;;;9.30;99.90;;;;;;4987475;28;20491;-83
2022/03/17 08:18:44;;;;;;;13.90;8.40;;;9.30;99.90;;;;;;4989304;28;20512;-83
2022/03/17 08:21:13;;;;;;;14.20;7.37;;;9.40;99.90;;;;;;4988134;28;20449;-82
2022/03/17 08:23:40;;;;;;;13.70;8.17;;;9.50;99.90;;;;;;4990186;28;21010;-83
2022/03/17 08:26:06;;;;;;;14.07;7.40;;;9.60;99.90;;;;;;4996179;28;20469;-82
2022/03/17 08:28:33;;;;;;;14.30;8.33;;;9.70;99.90;;;;;;4999528;28;20482;-84
2022/03/17 08:31:00;;;;;;;14.20;6.47;;;9.80;99.90;;;;;;5006915;28;20461;-83
2022/03/17 08:33:27;;;;;;;10.33;6.10;;;9.90;99.90;;;;;;4994185;28;20455;-83
2022/03/17 08:35:54;;;;;;;8.40;4.67;;;10.00;99.90;;;;;;4984653;28;20505;-83
2022/03/17 08:38:22;;;;;;;12.70;5.50;;;9.90;99.90;;;;;;4994699;28;20486;-83
2022/03/17 08:40:49;;;;;;;11.87;4.43;;;9.80;99.90;;;;;;4995090;28;20453;-80
2022/03/17 08:43:16;;;;;;;7.90;3.90;;;9.70;99.90;;;;;;4990509;28;20496;-81
2022/03/17 08:51:13;;;;;;;12.27;4.43;;;9.60;99.90;;;;;;4988149;28;20490;-80
2022/03/17 08:53:41;;;;;;;16.57;5.07;;;9.60;99.90;;;;;;4988208;28;20453;-83
2022/03/17 08:56:08;;;;;;;9.13;4.70;;;9.80;99.90;;;;;;4989620;28;20544;-83
2022/03/17 08:58:38;;;;;;;7.43;4.10;;;9.70;99.90;;;;;;4989928;28;20556;-82
2022/03/17 09:01:16;;;;;;;7.10;3.77;;;9.70;99.90;;;;;;4994590;28;20807;-82
2022/03/17 09:03:52;;;;;;;12.43;3.40;;;9.80;99.90;;;;;;4994409;28;20834;-81
2022/03/17 09:06:19;;;;;;;9.50;3.63;;;9.90;99.90;;;;;;4994500;28;20510;-81
2022/03/17 09:08:47;;;;;;;8.13;3.50;;;9.90;99.90;;;;;;4971408;28;20471;-80
2022/03/17 09:11:19;;;;;;;6.63;3.10;;;10.10;99.90;;;;;;4980819;28;20453;-80
2022/03/17 09:13:50;;;;;;;5.30;3.00;;;10.00;99.90;;;;;;4974105;28;20455;-81
2022/03/17 09:16:18;;;;;;;5.40;3.27;;;10.10;99.90;;;;;;4991229;28;20497;-81
2022/03/17 09:18:45;;;;;;;5.27;2.47;;;10.00;99.90;;;;;;4993309;28;20485;-82
2022/03/17 09:21:13;;;;;;;5.73;2.90;;;9.90;99.90;;;;;;4993620;28;20493;-81
2022/03/17 09:24:01;;;;;;;5.40;2.60;;;10.00;99.90;;;;;;4975865;28;20450;-81
2022/03/17 09:26:59;;;;;;;5.70;3.10;;;10.20;99.90;;;;;;4993365;28;21030;-82
2022/03/17 09:29:43;;;;;;;6.37;2.43;;;10.40;99.90;;;;;;4993637;28;20894;-82
2022/03/17 09:32:41;;;;;;;9.17;3.07;;;10.50;99.90;;;;;;4993073;28;20485;-81
2022/03/17 09:35:10;;;;;;;4.40;2.50;;;10.40;99.90;;;;;;4992302;28;20514;-80
2022/03/17 09:37:49;;;;;;;6.33;2.50;;;10.30;99.90;;;;;;4993268;28;20524;-79
2022/03/17 09:40:26;;;;;;;18.50;9.00;;;10.20;99.90;;;;;;4992791;28;20455;-80
2022/03/17 09:46:15;;;;;;;7.03;3.83;;;10.30;99.90;;;;;;4990756;28;21050;-81
2022/03/17 09:49:10;;;;;;;5.13;3.67;;;10.10;99.90;;;;;;4993042;28;20999;-82
2022/03/17 09:52:27;;;;;;;8.77;4.07;;;10.20;99.90;;;;;;4985798;28;20452;-81
2022/03/17 09:58:28;;;;;;;6.80;4.37;;;10.20;99.90;;;;;;4992377;28;20490;-81
2022/03/17 10:06:37;;;;;;;9.30;3.60;;;10.40;99.90;;;;;;4984376;28;20467;-80
2022/03/17 10:12:23;;;;;;;7.83;4.30;;;10.40;99.90;;;;;;4991933;28;20447;-80
2022/03/17 10:14:58;;;;;;;6.20;4.00;;;10.40;99.90;;;;;;4990093;28;20464;-80
2022/03/17 10:20:22;;;;;;;6.37;3.70;;;10.10;99.90;;;;;;4990959;28;20509;-80
2022/03/17 10:22:53;;;;;;;6.17;4.17;;;10.10;99.90;;;;;;4990594;28;20473;-81
2022/03/17 10:25:35;;;;;;;9.30;6.27;;;10.10;99.90;;;;;;4965475;28;20500;-80
2022/03/17 10:28:06;;;;;;;9.90;5.47;;;10.10;99.90;;;;;;4988746;28;20450;-81
2022/03/17 10:30:40;;;;;;;7.50;4.77;;;10.10;99.90;;;;;;4990449;28;20468;-81
2022/03/17 10:33:21;;;;;;;6.53;3.60;;;10.10;99.90;;;;;;4990462;28;20499;-81
2022/03/17 10:35:49;;;;;;;10.37;3.87;;;10.10;99.90;;;;;;4990644;28;20469;-80
2022/03/17 10:38:19;;;;;;;6.40;3.20;;;10.10;99.90;;;;;;4990271;28;20958;-82
2022/03/17 10:41:07;;;;;;;10.43;4.13;;;10.20;99.90;;;;;;4990497;28;20454;-81
2022/03/17 10:43:35;;;;;;;11.53;3.30;;;10.50;99.90;;;;;;4991064;28;20485;-81
2022/03/17 10:46:09;;;;;;;6.00;2.57;;;10.60;99.90;;;;;;4990027;28;20557;-80
2022/03/17 10:48:52;;;;;;;15.13;5.07;;;11.00;99.90;;;;;;4989847;28;20470;-79
2022/03/17 10:51:34;;;;;;;43.57;18.83;;;11.20;99.90;;;;;;4989000;28;20844;-81
2022/03/17 10:54:07;;;;;;;14.80;5.50;;;11.10;99.90;;;;;;4989107;28;20471;-80
2022/03/17 10:56:36;;;;;;;7.43;2.10;;;11.10;99.90;;;;;;4989137;28;20509;-81
2022/03/17 10:59:05;;;;;;;7.80;2.23;;;11.10;99.90;;;;;;4988634;28;20849;-81
2022/03/17 11:01:42;;;;;;;7.53;2.47;;;11.10;99.90;;;;;;4989152;28;20463;-81
2022/03/17 11:04:10;;;;;;;11.40;2.10;;;11.00;99.90;;;;;;4990213;28;20859;-81
2022/03/17 11:06:39;;;;;;;8.30;2.70;;;11.10;99.90;;;;;;4987109;28;20483;-81
2022/03/17 11:09:08;;;;;;;5.33;2.20;;;11.10;99.90;;;;;;4990477;28;20474;-80
2022/03/17 11:11:35;;;;;;;5.97;1.70;;;11.10;99.90;;;;;;4989575;28;20510;-81
2022/03/17 11:14:04;;;;;;;6.93;2.10;;;11.10;99.90;;;;;;4989157;28;20459;-81
2022/03/17 11:16:37;;;;;;;8.33;2.03;;;10.90;99.90;;;;;;4989595;28;20523;-81
2022/03/17 11:19:12;;;;;;;5.60;2.03;;;10.90;99.90;;;;;;4989810;28;20485;-81
2022/03/17 11:21:41;;;;;;;7.83;1.87;;;11.10;99.90;;;;;;4989114;28;20456;-81
2022/03/17 11:24:08;;;;;;;8.97;2.43;;;11.10;99.90;;;;;;4988762;28;20498;-81
2022/03/17 11:26:38;;;;;;;4.60;1.57;;;11.20;99.90;;;;;;4990156;28;20482;-80
2022/03/17 11:29:08;;;;;;;5.97;1.90;;;11.40;99.90;;;;;;4988269;28;20517;-81
2022/03/17 11:31:56;;;;;;;3.47;1.70;;;11.50;99.90;;;;;;4988772;28;20463;-81
2022/03/17 11:34:47;;;;;;;5.03;1.60;;;11.50;99.90;;;;;;4989341;28;20967;-82
2022/03/17 11:37:22;;;;;;;4.60;1.67;;;11.60;99.90;;;;;;4969713;28;20463;-81
2022/03/17 11:39:55;;;;;;;12.80;2.00;;;11.60;99.90;;;;;;4985984;28;20915;-81
2022/03/17 11:42:34;;;;;;;6.50;2.17;;;11.80;99.90;;;;;;4989449;28;20459;-81
2022/03/17 11:45:34;;;;;;;5.93;2.60;;;11.60;99.90;;;;;;4988432;28;20485;-82
2022/03/17 11:48:08;;;;;;;7.87;1.70;;;11.50;99.90;;;;;;4989689;28;20504;-81
2022/03/17 11:50:42;;;;;;;6.27;2.33;;;11.50;99.90;;;;;;4988579;28;20453;-81
2022/03/17 11:53:20;;;;;;;6.83;1.80;;;11.40;99.90;;;;;;4988511;28;20463;-80
2022/03/17 11:55:54;;;;;;;5.70;1.80;;;11.90;99.90;;;;;;4988789;28;20490;-79
2022/03/17 11:58:39;;;;;;;5.90;2.33;;;12.10;99.90;;;;;;4992618;28;20507;-81
2022/03/17 12:01:11;;;;;;;6.10;1.70;;;12.30;99.90;;;;;;4991941;28;20456;-81
2022/03/17 12:03:44;;;;;;;7.43;2.60;;;12.40;99.90;;;;;;4991081;28;20446;-81
2022/03/17 12:06:17;;;;;;;11.53;2.30;;;13.20;99.90;;;;;;4991472;28;20848;-81
2022/03/17 12:08:55;;;;;;;5.53;1.70;;;14.50;99.90;;;;;;4993262;28;20522;-81
2022/03/17 12:11:25;;;;;;;8.90;2.30;;;16.00;99.90;;;;;;4993422;28;21036;-81
2022/03/17 12:14:23;;;;;;;5.70;1.87;;;16.00;99.90;;;;;;4992556;28;20489;-80
2022/03/17 12:16:55;;;;;;;9.43;3.50;;;16.10;99.90;;;;;;4975206;28;20473;-81
2022/03/17 12:19:37;;;;;;;7.07;2.83;;;16.30;99.90;;;;;;4991345;28;20478;-81
2022/03/17 12:22:18;;;;;;;7.70;1.93;;;16.00;99.90;;;;;;4991346;28;20413;-81
2022/03/17 12:24:47;;;;;;;7.10;2.13;;;15.30;99.90;;;;;;4991813;28;20423;-80
2022/03/17 12:27:18;;;;;;;8.13;2.07;;;15.50;99.90;;;;;;4992981;28;20451;-80
2022/03/17 12:29:49;;;;;;;5.90;1.80;;;15.30;99.90;;;;;;4991282;28;20588;-81
2022/03/17 12:32:18;;;;;;;6.70;1.57;;;15.10;99.90;;;;;;4991875;28;20514;-81
2022/03/17 12:34:48;;;;;;;4.00;1.40;;;15.00;99.90;;;;;;4991222;28;20453;-79
2022/03/17 12:37:17;;;;;;;3.50;1.50;;;15.00;99.90;;;;;;4992487;28;20538;-81
2022/03/17 12:39:50;;;;;;;5.37;1.40;;;14.80;99.90;;;;;;4992901;28;20502;-80
2022/03/17 12:42:20;;;;;;;7.30;1.50;;;14.80;99.90;;;;;;4974095;28;20447;-81
2022/03/17 12:44:52;;;;;;;5.37;1.30;;;14.90;99.90;;;;;;4990579;28;20541;-80
2022/03/17 12:47:21;;;;;;;4.23;1.10;;;14.50;99.90;;;;;;4991320;28;20777;-82
2022/03/17 12:49:50;;;;;;;6.63;1.90;;;14.60;99.90;;;;;;4990149;28;20479;-82
2022/03/17 12:52:21;;;;;;;10.27;1.30;;;14.30;99.90;;;;;;4990771;28;20436;-81
2022/03/17 12:54:55;;;;;;;5.00;1.70;;;13.80;99.90;;;;;;4988808;28;20443;-79
2022/03/17 12:57:23;;;;;;;4.73;1.67;;;13.50;99.90;;;;;;4991463;28;20483;-79
2022/03/17 12:59:50;;;;;;;11.80;1.90;;;13.60;99.90;;;;;;4990722;28;21012;-80
2022/03/17 13:02:22;;;;;;;6.17;1.93;;;13.40;99.90;;;;;;4991052;28;20448;-80
2022/03/17 13:04:51;;;;;;;5.67;2.00;;;13.30;99.90;;;;;;4991515;28;20456;-80
2022/03/17 13:07:19;;;;;;;8.13;1.63;;;13.20;99.90;;;;;;4991303;28;20463;-80
2022/03/17 13:09:48;;;;;;;7.27;1.50;;;13.30;99.90;;;;;;4991527;28;20452;-80
2022/03/17 13:15:04;;;;;;;7.47;1.40;;;12.70;99.90;;;;;;4989856;28;20479;-79
2022/03/17 13:17:35;;;;;;;6.93;1.80;;;12.40;99.90;;;;;;4990418;28;20452;-80
2022/03/17 13:20:04;;;;;;;7.13;1.67;;;12.30;99.90;;;;;;4991861;28;20545;-80
2022/03/17 13:22:33;;;;;;;5.27;1.97;;;12.50;99.90;;;;;;4992623;28;20513;-80
2022/03/17 13:25:06;;;;;;;7.90;2.00;;;12.60;99.90;;;;;;4992721;28;20473;-79